Nashville, TN (37201)

4:01 PM CDT on August 30, 2014 (GMT -0500)
Cumberland Gardens | Change Station
CLOSE
Current Station
Personal Weather Station
Location: Nashville, TN
Elevation: 476 ft
Nearby Weather Stations

Elev 476 ft 36.18 °N, 86.82 °W | Updated 18 seconds ago

Rain
Rain
78.3 °F
Feels Like 81 °F
N
0.0
Wind Variable Wind from West
Gusts 0.7 mph

Today
High -- | Low -- °F
--% Chance of Precip.
Yesterday
High -- | Low -- °F
Precip. -- in
6:17 AM 7:17 PM
Waxing Crescent, 24% visible
Pressure 30.02 in
Visibility 10.0 miles
Clouds Scattered Clouds 2300 ft
Mostly Cloudy 8500 ft
Mostly Cloudy 20000 ft
Heat Index 81 °F
Dew Point 76 °F
Humidity 94%
Rainfall 0.04 in
Snow Depth Not available.
UV 3 out of 12
Pollen 6.00 out of 12
Ozone Good
PM2.5 Moderate
Flu Activity Not available.
METAR KBNA 302053Z 34007KT 10SM SCT023 BKN085 BKN200 26/22 A3004 RMK AO2 RAB19E32 SLP166 CB DSNT SE-S P0000 60000 T02560222 56021

More Conditions Fewer Conditions

Pressure 30.02 in
Visibility 10.0 miles
Clouds Scattered Clouds 2300 ft
Mostly Cloudy 8500 ft
Mostly Cloudy 20000 ft
Heat Index 81 °F
Dew Point 76 °F
Humidity 94%
Rainfall 0.04 in
Snow Depth Not available.
UV 3 out of 12
Pollen 6.00 out of 12
Ozone Good
PM2.5 Moderate
Flu Activity Not available.
METAR KBNA 302053Z 34007KT 10SM SCT023 BKN085 BKN200 26/22 A3004 RMK AO2 RAB19E32 SLP166 CB DSNT SE-S P0000 60000 T02560222 56021

More Conditions Fewer Conditions

10-Day Weather Forecast

Almanac

Astronomy

Aug. 30, 2014 Rise Set
Actual Time 6:17 AM CDT 7:17 PM CDT
Civil Twilight 5:50 AM CDT 7:43 PM CDT
Nautical Twilight 5:19 AM CDT 8:15 PM CDT
Astronomical Twilight 4:47 AM CDT 8:47 PM CDT
Moon 10:54 AM CDT 10:01 PM CDT
Length of Visible Light 13h 53m
Length of Day
13h 00m
Tomorrow will be 2m 11s shorter.
Waxing Crescent, 24% of the Moon is Illuminated
Today
Waxing Crescent
Sep 2
First Quarter
Sep 8
Full
Sep 15
Last Quarter
Sep 24
New

Today's Extremes

State Highs State Lows

Community

WunderPhotos

Upload Photos

1,748,627 photos uploaded!

WunderBlogs® & News

Nearby

Air Quality

  Air Quality AQ Index Pollutant
Yesterday Moderate
PM2.5
Yesterday Moderate
OZONE
Current Moderate
PM2.5
Current Good
OZONE
Saturday Moderate
PM2.5
Saturday Good
OZONE
Sunday Moderate
PM2.5
Sunday Good
OZONE
Monday Moderate
OZONE
Monday Good
PM2.5

Snow Depth

Station Depth Elevation
No new snow has been reported.

Earthquake Activity

City Distance Mag. Time & Date
No recent earthquake activity has been reported nearby.
Minimum magnitude displayed is 2.5.

Coastal Water Temperatures

Place Temperature
No Stations Reporting

Nearby Weather Stations